首页
METAR-TAF:

METAR-TAF

机场 :

巴利亚多利德, 西班牙

纬度: 41-43N, 经度: 004-51W, 海拔: 849米

当前天气观测

该预报发布于25分钟前的18:30 UTC
风速5节,风向
温度 4°C
湿度 75%
气压 1032 hPa
能见度10公里或以上
1500米以下无云,无积雨云

METAR: LEVD 181830Z 36005KT CAVOK 04/00 Q1032

时间: 19:55 (18:55 UTC)

预报

该预报发布于1小时和55分钟前的17:00 UTC
预报有效从18日的 18点(UTC)到 19日的 18点(UTC)
风速7节,风向北转东北
能见度10公里或以上
散云层高于3500英尺

TAF: LEVD 181700Z 1818/1918 03007KT 9999 SCT035 TX11/1916Z TNM01/1906Z

超过4000个机场的气象观测和天气预报(METAR&TAF报告)。

可查询的气象台以黄色和红色小点在地图上表示。

将鼠标移到小点上方,可查看气象台名称。

然后点击查看天气观测和预报。

如需切换地图:点击带黑十字的绿色按钮放大地图;点击带横线的绿色按钮缩小地图;或者点击绿色箭头查看邻近地区的地图。


METAR-TAF: